sensor_id;sensor_type;location;lat;lon;timestamp;P1;durP1;ratioP1;P2;durP2;ratioP2
6251;SDS011;3159;52.414;9.784;2023-05-16T00:01:50;5.60;;;4.20;;
6251;SDS011;3159;52.414;9.784;2023-05-16T00:04:17;5.10;;;4.57;;
6251;SDS011;3159;52.414;9.784;2023-05-16T00:06:44;5.27;;;4.00;;
6251;SDS011;3159;52.414;9.784;2023-05-16T00:09:12;5.00;;;4.23;;
6251;SDS011;3159;52.414;9.784;2023-05-16T00:11:39;5.53;;;3.87;;
6251;SDS011;3159;52.414;9.784;2023-05-16T00:14:06;5.47;;;4.03;;
6251;SDS011;3159;52.414;9.784;2023-05-16T00:16:33;4.50;;;4.10;;
6251;SDS011;3159;52.414;9.784;2023-05-16T00:19:01;5.70;;;3.80;;
6251;SDS011;3159;52.414;9.784;2023-05-16T00:21:28;5.87;;;4.47;;
6251;SDS011;3159;52.414;9.784;2023-05-16T00:23:55;6.43;;;4.53;;
6251;SDS011;3159;52.414;9.784;2023-05-16T00:26:23;6.27;;;4.60;;
6251;SDS011;3159;52.414;9.784;2023-05-16T00:28:51;5.40;;;4.57;;
6251;SDS011;3159;52.414;9.784;2023-05-16T00:31:18;5.90;;;4.53;;
6251;SDS011;3159;52.414;9.784;2023-05-16T00:33:44;7.50;;;4.50;;
6251;SDS011;3159;52.414;9.784;2023-05-16T00:36:11;5.10;;;4.60;;
6251;SDS011;3159;52.414;9.784;2023-05-16T00:38:38;7.87;;;4.40;;
6251;SDS011;3159;52.414;9.784;2023-05-16T00:41:05;6.97;;;4.40;;
6251;SDS011;3159;52.414;9.784;2023-05-16T00:43:33;5.80;;;4.23;;
6251;SDS011;3159;52.414;9.784;2023-05-16T00:46:00;6.20;;;4.60;;
6251;SDS011;3159;52.414;9.784;2023-05-16T00:48:27;6.87;;;4.83;;
6251;SDS011;3159;52.414;9.784;2023-05-16T00:50:54;4.83;;;4.27;;
6251;SDS011;3159;52.414;9.784;2023-05-16T00:53:22;6.23;;;4.43;;
6251;SDS011;3159;52.414;9.784;2023-05-16T00:55:49;4.10;;;3.40;;
6251;SDS011;3159;52.414;9.784;2023-05-16T00:58:17;5.70;;;3.20;;
6251;SDS011;3159;52.414;9.784;2023-05-16T01:00:45;4.70;;;3.53;;
6251;SDS011;3159;52.414;9.784;2023-05-16T01:03:12;6.87;;;3.87;;
6251;SDS011;3159;52.414;9.784;2023-05-16T01:05:39;5.33;;;3.67;;
6251;SDS011;3159;52.414;9.784;2023-05-16T01:08:06;4.60;;;3.00;;
6251;SDS011;3159;52.414;9.784;2023-05-16T01:10:35;3.07;;;2.77;;
6251;SDS011;3159;52.414;9.784;2023-05-16T01:13:10;3.57;;;2.73;;
6251;SDS011;3159;52.414;9.784;2023-05-16T01:15:43;3.10;;;2.40;;
6251;SDS011;3159;52.414;9.784;2023-05-16T01:18:17;3.50;;;2.33;;
6251;SDS011;3159;52.414;9.784;2023-05-16T01:20:52;5.90;;;2.10;;
6251;SDS011;3159;52.414;9.784;2023-05-16T01:23:39;3.97;;;1.83;;
6251;SDS011;3159;52.414;9.784;2023-05-16T01:26:15;3.60;;;2.27;;
6251;SDS011;3159;52.414;9.784;2023-05-16T01:28:45;3.43;;;2.20;;
6251;SDS011;3159;52.414;9.784;2023-05-16T01:31:13;2.97;;;2.07;;
6251;SDS011;3159;52.414;9.784;2023-05-16T01:33:40;2.77;;;2.50;;
6251;SDS011;3159;52.414;9.784;2023-05-16T01:36:09;4.10;;;2.17;;
6251;SDS011;3159;52.414;9.784;2023-05-16T01:38:43;2.90;;;1.93;;
6251;SDS011;3159;52.414;9.784;2023-05-16T01:41:20;5.07;;;2.07;;
6251;SDS011;3159;52.414;9.784;2023-05-16T01:43:54;3.60;;;2.17;;
6251;SDS011;3159;52.414;9.784;2023-05-16T01:46:31;4.23;;;2.53;;
6251;SDS011;3159;52.414;9.784;2023-05-16T01:49:03;6.17;;;2.37;;
6251;SDS011;3159;52.414;9.784;2023-05-16T01:51:41;4.67;;;3.00;;
6251;SDS011;3159;52.414;9.784;2023-05-16T01:54:10;4.10;;;2.90;;
6251;SDS011;3159;52.414;9.784;2023-05-16T01:56:39;3.90;;;3.07;;
6251;SDS011;3159;52.414;9.784;2023-05-16T01:59:12;4.27;;;3.13;;
6251;SDS011;3159;52.414;9.784;2023-05-16T02:01:39;3.87;;;2.90;;
6251;SDS011;3159;52.414;9.784;2023-05-16T02:04:06;4.33;;;3.33;;
6251;SDS011;3159;52.414;9.784;2023-05-16T02:06:33;6.77;;;3.90;;
6251;SDS011;3159;52.414;9.784;2023-05-16T02:09:00;6.43;;;3.13;;
6251;SDS011;3159;52.414;9.784;2023-05-16T02:11:27;4.07;;;3.43;;
6251;SDS011;3159;52.414;9.784;2023-05-16T02:13:55;5.20;;;3.23;;
6251;SDS011;3159;52.414;9.784;2023-05-16T02:16:22;6.93;;;3.00;;
6251;SDS011;3159;52.414;9.784;2023-05-16T02:18:49;4.87;;;3.10;;
6251;SDS011;3159;52.414;9.784;2023-05-16T02:21:16;4.13;;;2.70;;
6251;SDS011;3159;52.414;9.784;2023-05-16T02:23:43;3.60;;;2.57;;
6251;SDS011;3159;52.414;9.784;2023-05-16T02:26:10;8.27;;;3.00;;
6251;SDS011;3159;52.414;9.784;2023-05-16T02:28:37;5.10;;;2.83;;
6251;SDS011;3159;52.414;9.784;2023-05-16T02:31:05;5.07;;;3.10;;
6251;SDS011;3159;52.414;9.784;2023-05-16T02:33:32;6.43;;;3.03;;
6251;SDS011;3159;52.414;9.784;2023-05-16T02:35:59;6.00;;;3.83;;
6251;SDS011;3159;52.414;9.784;2023-05-16T02:38:26;5.27;;;4.10;;
6251;SDS011;3159;52.414;9.784;2023-05-16T02:40:53;4.77;;;3.87;;
6251;SDS011;3159;52.414;9.784;2023-05-16T02:43:20;5.63;;;3.90;;
6251;SDS011;3159;52.414;9.784;2023-05-16T02:45:47;6.97;;;4.20;;
6251;SDS011;3159;52.414;9.784;2023-05-16T02:48:15;6.90;;;3.90;;
6251;SDS011;3159;52.414;9.784;2023-05-16T02:50:42;6.57;;;3.97;;
6251;SDS011;3159;52.414;9.784;2023-05-16T02:53:09;6.17;;;4.20;;
6251;SDS011;3159;52.414;9.784;2023-05-16T02:55:36;7.50;;;3.73;;
6251;SDS011;3159;52.414;9.784;2023-05-16T02:58:03;6.10;;;3.97;;
6251;SDS011;3159;52.414;9.784;2023-05-16T03:00:30;7.00;;;4.07;;
6251;SDS011;3159;52.414;9.784;2023-05-16T03:02:57;7.83;;;4.20;;
6251;SDS011;3159;52.414;9.784;2023-05-16T03:05:25;8.43;;;5.10;;
6251;SDS011;3159;52.414;9.784;2023-05-16T03:07:52;7.60;;;4.57;;
6251;SDS011;3159;52.414;9.784;2023-05-16T03:10:19;7.23;;;4.47;;
6251;SDS011;3159;52.414;9.784;2023-05-16T03:12:46;6.67;;;4.30;;
6251;SDS011;3159;52.414;9.784;2023-05-16T03:15:13;8.20;;;4.30;;
6251;SDS011;3159;52.414;9.784;2023-05-16T03:17:41;6.63;;;4.07;;
6251;SDS011;3159;52.414;9.784;2023-05-16T03:20:08;7.87;;;4.60;;
6251;SDS011;3159;52.414;9.784;2023-05-16T03:22:37;6.50;;;3.40;;
6251;SDS011;3159;52.414;9.784;2023-05-16T03:25:05;5.73;;;4.00;;
6251;SDS011;3159;52.414;9.784;2023-05-16T03:27:33;6.70;;;3.47;;
6251;SDS011;3159;52.414;9.784;2023-05-16T03:30:00;6.80;;;3.27;;
6251;SDS011;3159;52.414;9.784;2023-05-16T03:32:27;6.53;;;3.00;;
6251;SDS011;3159;52.414;9.784;2023-05-16T03:34:54;6.63;;;3.50;;
6251;SDS011;3159;52.414;9.784;2023-05-16T03:37:21;5.00;;;2.47;;
6251;SDS011;3159;52.414;9.784;2023-05-16T03:39:49;9.13;;;3.00;;
6251;SDS011;3159;52.414;9.784;2023-05-16T03:42:16;4.30;;;2.77;;
6251;SDS011;3159;52.414;9.784;2023-05-16T03:44:43;9.43;;;3.10;;
6251;SDS011;3159;52.414;9.784;2023-05-16T03:47:10;5.93;;;2.60;;
6251;SDS011;3159;52.414;9.784;2023-05-16T03:49:37;8.07;;;3.00;;
6251;SDS011;3159;52.414;9.784;2023-05-16T03:52:05;5.40;;;2.80;;
6251;SDS011;3159;52.414;9.784;2023-05-16T03:54:32;5.90;;;2.20;;
6251;SDS011;3159;52.414;9.784;2023-05-16T03:57:00;13.13;;;3.03;;
6251;SDS011;3159;52.414;9.784;2023-05-16T03:59:27;12.20;;;3.00;;
6251;SDS011;3159;52.414;9.784;2023-05-16T04:01:54;5.77;;;2.47;;
6251;SDS011;3159;52.414;9.784;2023-05-16T04:04:21;10.97;;;2.30;;
6251;SDS011;3159;52.414;9.784;2023-05-16T04:06:48;7.40;;;1.97;;
6251;SDS011;3159;52.414;9.784;2023-05-16T04:09:15;12.93;;;2.87;;
6251;SDS011;3159;52.414;9.784;2023-05-16T04:11:42;8.00;;;2.47;;
6251;SDS011;3159;52.414;9.784;2023-05-16T04:14:11;6.93;;;2.60;;
6251;SDS011;3159;52.414;9.784;2023-05-16T04:16:38;6.53;;;2.10;;
6251;SDS011;3159;52.414;9.784;2023-05-16T04:19:05;5.73;;;1.97;;
6251;SDS011;3159;52.414;9.784;2023-05-16T04:21:31;6.23;;;2.67;;
6251;SDS011;3159;52.414;9.784;2023-05-16T04:23:59;11.33;;;2.47;;
6251;SDS011;3159;52.414;9.784;2023-05-16T04:26:26;9.50;;;2.57;;
6251;SDS011;3159;52.414;9.784;2023-05-16T04:28:54;7.80;;;2.67;;
6251;SDS011;3159;52.414;9.784;2023-05-16T04:31:23;8.50;;;2.43;;
6251;SDS011;3159;52.414;9.784;2023-05-16T04:33:51;6.87;;;2.80;;
6251;SDS011;3159;52.414;9.784;2023-05-16T04:36:18;6.97;;;2.93;;
6251;SDS011;3159;52.414;9.784;2023-05-16T04:38:46;11.77;;;2.40;;
6251;SDS011;3159;52.414;9.784;2023-05-16T04:41:13;9.47;;;2.70;;
6251;SDS011;3159;52.414;9.784;2023-05-16T04:43:40;8.83;;;2.53;;
6251;SDS011;3159;52.414;9.784;2023-05-16T04:46:08;35.03;;;3.60;;
6251;SDS011;3159;52.414;9.784;2023-05-16T04:48:37;10.00;;;2.27;;
6251;SDS011;3159;52.414;9.784;2023-05-16T04:51:04;12.63;;;2.73;;
6251;SDS011;3159;52.414;9.784;2023-05-16T04:53:31;10.57;;;2.77;;
6251;SDS011;3159;52.414;9.784;2023-05-16T04:55:58;11.60;;;2.53;;
6251;SDS011;3159;52.414;9.784;2023-05-16T04:58:25;10.53;;;2.27;;
6251;SDS011;3159;52.414;9.784;2023-05-16T05:00:52;12.93;;;3.07;;
6251;SDS011;3159;52.414;9.784;2023-05-16T05:03:20;10.73;;;2.87;;
6251;SDS011;3159;52.414;9.784;2023-05-16T05:05:49;11.30;;;2.80;;
6251;SDS011;3159;52.414;9.784;2023-05-16T05:08:16;11.40;;;2.40;;
6251;SDS011;3159;52.414;9.784;2023-05-16T05:10:43;10.30;;;2.47;;
6251;SDS011;3159;52.414;9.784;2023-05-16T05:13:10;7.33;;;2.27;;
6251;SDS011;3159;52.414;9.784;2023-05-16T05:15:37;10.10;;;2.20;;
6251;SDS011;3159;52.414;9.784;2023-05-16T05:18:04;6.70;;;2.20;;
6251;SDS011;3159;52.414;9.784;2023-05-16T05:20:31;11.27;;;2.30;;
6251;SDS011;3159;52.414;9.784;2023-05-16T05:22:59;7.97;;;2.40;;
6251;SDS011;3159;52.414;9.784;2023-05-16T05:25:26;8.70;;;2.63;;
6251;SDS011;3159;52.414;9.784;2023-05-16T05:27:53;10.93;;;2.13;;
6251;SDS011;3159;52.414;9.784;2023-05-16T05:30:20;12.33;;;2.30;;
6251;SDS011;3159;52.414;9.784;2023-05-16T05:32:47;14.30;;;2.40;;
6251;SDS011;3159;52.414;9.784;2023-05-16T05:35:14;10.93;;;2.23;;
6251;SDS011;3159;52.414;9.784;2023-05-16T05:37:41;8.10;;;2.10;;
6251;SDS011;3159;52.414;9.784;2023-05-16T05:40:10;8.60;;;2.23;;
6251;SDS011;3159;52.414;9.784;2023-05-16T05:42:37;13.53;;;2.10;;
6251;SDS011;3159;52.414;9.784;2023-05-16T05:45:04;10.37;;;2.17;;
6251;SDS011;3159;52.414;9.784;2023-05-16T05:47:32;11.30;;;2.07;;
6251;SDS011;3159;52.414;9.784;2023-05-16T05:49:59;10.27;;;2.00;;
6251;SDS011;3159;52.414;9.784;2023-05-16T05:52:26;9.77;;;2.17;;
6251;SDS011;3159;52.414;9.784;2023-05-16T05:54:53;10.90;;;1.83;;
6251;SDS011;3159;52.414;9.784;2023-05-16T05:57:21;12.20;;;2.37;;
6251;SDS011;3159;52.414;9.784;2023-05-16T05:59:48;6.63;;;1.97;;
6251;SDS011;3159;52.414;9.784;2023-05-16T06:02:15;10.97;;;1.93;;
6251;SDS011;3159;52.414;9.784;2023-05-16T06:04:42;13.00;;;2.37;;
6251;SDS011;3159;52.414;9.784;2023-05-16T06:07:09;9.30;;;2.17;;
6251;SDS011;3159;52.414;9.784;2023-05-16T06:09:37;10.57;;;2.20;;
6251;SDS011;3159;52.414;9.784;2023-05-16T06:12:04;13.33;;;2.40;;
6251;SDS011;3159;52.414;9.784;2023-05-16T06:14:32;8.97;;;2.50;;
6251;SDS011;3159;52.414;9.784;2023-05-16T06:16:59;9.80;;;2.00;;
6251;SDS011;3159;52.414;9.784;2023-05-16T06:19:26;11.77;;;2.60;;
6251;SDS011;3159;52.414;9.784;2023-05-16T06:21:53;9.70;;;2.20;;
6251;SDS011;3159;52.414;9.784;2023-05-16T06:24:20;11.53;;;2.00;;
6251;SDS011;3159;52.414;9.784;2023-05-16T06:26:47;10.07;;;2.00;;
6251;SDS011;3159;52.414;9.784;2023-05-16T06:29:14;15.00;;;2.83;;
6251;SDS011;3159;52.414;9.784;2023-05-16T06:31:43;8.50;;;1.70;;
6251;SDS011;3159;52.414;9.784;2023-05-16T06:34:11;11.90;;;2.20;;
6251;SDS011;3159;52.414;9.784;2023-05-16T06:36:38;13.47;;;2.83;;
6251;SDS011;3159;52.414;9.784;2023-05-16T06:39:05;7.90;;;2.00;;
6251;SDS011;3159;52.414;9.784;2023-05-16T06:41:32;8.77;;;2.20;;
6251;SDS011;3159;52.414;9.784;2023-05-16T06:43:59;9.43;;;2.23;;
6251;SDS011;3159;52.414;9.784;2023-05-16T06:46:26;9.93;;;2.10;;
6251;SDS011;3159;52.414;9.784;2023-05-16T06:48:54;11.37;;;2.00;;
6251;SDS011;3159;52.414;9.784;2023-05-16T06:51:21;7.90;;;1.77;;
6251;SDS011;3159;52.414;9.784;2023-05-16T06:53:48;11.57;;;1.67;;
6251;SDS011;3159;52.414;9.784;2023-05-16T06:56:15;11.03;;;1.90;;
6251;SDS011;3159;52.414;9.784;2023-05-16T06:58:42;7.00;;;2.10;;
6251;SDS011;3159;52.414;9.784;2023-05-16T07:01:09;8.53;;;2.20;;
6251;SDS011;3159;52.414;9.784;2023-05-16T07:03:36;6.80;;;1.80;;
6251;SDS011;3159;52.414;9.784;2023-05-16T07:06:05;9.33;;;2.23;;
6251;SDS011;3159;52.414;9.784;2023-05-16T07:08:32;9.40;;;1.50;;
6251;SDS011;3159;52.414;9.784;2023-05-16T07:11:00;8.60;;;1.90;;
6251;SDS011;3159;52.414;9.784;2023-05-16T07:13:26;8.13;;;2.03;;
6251;SDS011;3159;52.414;9.784;2023-05-16T07:15:53;6.23;;;1.40;;
6251;SDS011;3159;52.414;9.784;2023-05-16T07:18:20;7.20;;;2.07;;
6251;SDS011;3159;52.414;9.784;2023-05-16T07:20:47;10.27;;;1.97;;
6251;SDS011;3159;52.414;9.784;2023-05-16T07:23:16;5.03;;;1.40;;
6251;SDS011;3159;52.414;9.784;2023-05-16T07:25:43;6.63;;;1.80;;
6251;SDS011;3159;52.414;9.784;2023-05-16T07:28:10;8.33;;;1.57;;
6251;SDS011;3159;52.414;9.784;2023-05-16T07:30:37;9.13;;;1.80;;
6251;SDS011;3159;52.414;9.784;2023-05-16T07:33:04;7.13;;;1.50;;
6251;SDS011;3159;52.414;9.784;2023-05-16T07:35:30;6.37;;;1.77;;
6251;SDS011;3159;52.414;9.784;2023-05-16T07:37:57;6.27;;;1.77;;
6251;SDS011;3159;52.414;9.784;2023-05-16T07:40:26;5.63;;;1.27;;
6251;SDS011;3159;52.414;9.784;2023-05-16T07:42:53;5.07;;;1.60;;
6251;SDS011;3159;52.414;9.784;2023-05-16T07:45:20;8.93;;;1.50;;
6251;SDS011;3159;52.414;9.784;2023-05-16T07:47:47;8.17;;;1.30;;
6251;SDS011;3159;52.414;9.784;2023-05-16T07:50:14;6.80;;;1.70;;
6251;SDS011;3159;52.414;9.784;2023-05-16T07:52:41;10.83;;;1.70;;
6251;SDS011;3159;52.414;9.784;2023-05-16T07:55:08;8.80;;;1.57;;
6251;SDS011;3159;52.414;9.784;2023-05-16T07:57:37;6.50;;;1.30;;
6251;SDS011;3159;52.414;9.784;2023-05-16T08:00:04;4.53;;;1.30;;
6251;SDS011;3159;52.414;9.784;2023-05-16T08:02:33;6.40;;;1.13;;
6251;SDS011;3159;52.414;9.784;2023-05-16T08:05:00;4.37;;;1.57;;
6251;SDS011;3159;52.414;9.784;2023-05-16T08:07:27;6.03;;;1.17;;
6251;SDS011;3159;52.414;9.784;2023-05-16T08:09:55;6.63;;;1.50;;
6251;SDS011;3159;52.414;9.784;2023-05-16T08:12:22;3.77;;;1.20;;
6251;SDS011;3159;52.414;9.784;2023-05-16T08:14:52;6.03;;;1.30;;
6251;SDS011;3159;52.414;9.784;2023-05-16T08:17:19;2.67;;;0.93;;
6251;SDS011;3159;52.414;9.784;2023-05-16T08:19:46;3.67;;;0.93;;
6251;SDS011;3159;52.414;9.784;2023-05-16T08:22:14;4.53;;;1.53;;
6251;SDS011;3159;52.414;9.784;2023-05-16T08:24:41;8.70;;;1.63;;
6251;SDS011;3159;52.414;9.784;2023-05-16T08:27:07;8.17;;;1.80;;
6251;SDS011;3159;52.414;9.784;2023-05-16T08:29:35;6.57;;;1.40;;
6251;SDS011;3159;52.414;9.784;2023-05-16T08:32:04;2.70;;;1.20;;
6251;SDS011;3159;52.414;9.784;2023-05-16T08:34:32;6.63;;;1.63;;
6251;SDS011;3159;52.414;9.784;2023-05-16T08:36:59;7.17;;;1.50;;
6251;SDS011;3159;52.414;9.784;2023-05-16T08:39:26;6.07;;;1.37;;
6251;SDS011;3159;52.414;9.784;2023-05-16T08:41:54;7.17;;;1.33;;
6251;SDS011;3159;52.414;9.784;2023-05-16T08:44:22;7.13;;;1.57;;
6251;SDS011;3159;52.414;9.784;2023-05-16T08:46:50;7.83;;;1.60;;
6251;SDS011;3159;52.414;9.784;2023-05-16T08:49:19;4.50;;;1.50;;
6251;SDS011;3159;52.414;9.784;2023-05-16T08:51:47;5.13;;;1.13;;
6251;SDS011;3159;52.414;9.784;2023-05-16T08:54:15;3.07;;;0.93;;
6251;SDS011;3159;52.414;9.784;2023-05-16T08:56:43;4.93;;;1.40;;
6251;SDS011;3159;52.414;9.784;2023-05-16T08:59:12;4.10;;;1.10;;
6251;SDS011;3159;52.414;9.784;2023-05-16T09:01:39;5.07;;;1.40;;
6251;SDS011;3159;52.414;9.784;2023-05-16T09:04:07;2.50;;;0.80;;
6251;SDS011;3159;52.414;9.784;2023-05-16T09:06:36;6.73;;;1.57;;
6251;SDS011;3159;52.414;9.784;2023-05-16T09:09:03;7.03;;;1.40;;
6251;SDS011;3159;52.414;9.784;2023-05-16T09:11:32;7.80;;;1.53;;
6251;SDS011;3159;52.414;9.784;2023-05-16T09:13:59;6.50;;;1.23;;
6251;SDS011;3159;52.414;9.784;2023-05-16T09:16:26;8.03;;;1.67;;
6251;SDS011;3159;52.414;9.784;2023-05-16T09:18:54;8.37;;;1.30;;
6251;SDS011;3159;52.414;9.784;2023-05-16T09:21:22;4.13;;;1.10;;
6251;SDS011;3159;52.414;9.784;2023-05-16T09:23:53;5.47;;;1.30;;
6251;SDS011;3159;52.414;9.784;2023-05-16T09:26:21;4.47;;;1.10;;
6251;SDS011;3159;52.414;9.784;2023-05-16T09:28:48;5.87;;;1.20;;
6251;SDS011;3159;52.414;9.784;2023-05-16T09:31:20;5.30;;;1.00;;
6251;SDS011;3159;52.414;9.784;2023-05-16T09:33:47;5.13;;;1.73;;
6251;SDS011;3159;52.414;9.784;2023-05-16T09:36:15;5.77;;;1.50;;
6251;SDS011;3159;52.414;9.784;2023-05-16T09:38:42;5.17;;;1.20;;
6251;SDS011;3159;52.414;9.784;2023-05-16T09:41:11;4.47;;;0.90;;
6251;SDS011;3159;52.414;9.784;2023-05-16T09:43:38;3.40;;;1.03;;
6251;SDS011;3159;52.414;9.784;2023-05-16T09:46:07;9.17;;;1.43;;
6251;SDS011;3159;52.414;9.784;2023-05-16T09:48:34;6.40;;;1.20;;
6251;SDS011;3159;52.414;9.784;2023-05-16T09:51:02;2.93;;;1.10;;
6251;SDS011;3159;52.414;9.784;2023-05-16T09:53:31;5.63;;;1.50;;
6251;SDS011;3159;52.414;9.784;2023-05-16T09:56:02;5.27;;;1.60;;
6251;SDS011;3159;52.414;9.784;2023-05-16T09:58:33;2.83;;;0.93;;
6251;SDS011;3159;52.414;9.784;2023-05-16T10:01:01;3.90;;;1.00;;
6251;SDS011;3159;52.414;9.784;2023-05-16T10:03:29;4.10;;;1.00;;
6251;SDS011;3159;52.414;9.784;2023-05-16T10:06:01;4.40;;;1.07;;
6251;SDS011;3159;52.414;9.784;2023-05-16T10:08:30;3.80;;;1.33;;
6251;SDS011;3159;52.414;9.784;2023-05-16T10:11:00;4.77;;;1.00;;
6251;SDS011;3159;52.414;9.784;2023-05-16T10:13:28;5.40;;;1.40;;
6251;SDS011;3159;52.414;9.784;2023-05-16T10:15:58;6.00;;;1.23;;
6251;SDS011;3159;52.414;9.784;2023-05-16T10:18:28;3.63;;;1.13;;
6251;SDS011;3159;52.414;9.784;2023-05-16T10:20:56;3.77;;;1.10;;
6251;SDS011;3159;52.414;9.784;2023-05-16T10:23:26;4.57;;;1.20;;
6251;SDS011;3159;52.414;9.784;2023-05-16T10:25:54;4.17;;;0.80;;
6251;SDS011;3159;52.414;9.784;2023-05-16T10:28:24;2.57;;;1.10;;
6251;SDS011;3159;52.414;9.784;2023-05-16T10:30:52;5.50;;;1.40;;
6251;SDS011;3159;52.414;9.784;2023-05-16T10:33:21;4.50;;;0.97;;
6251;SDS011;3159;52.414;9.784;2023-05-16T10:35:48;2.77;;;0.80;;
6251;SDS011;3159;52.414;9.784;2023-05-16T10:38:16;4.23;;;0.70;;
6251;SDS011;3159;52.414;9.784;2023-05-16T10:40:44;3.43;;;0.80;;
6251;SDS011;3159;52.414;9.784;2023-05-16T10:43:21;4.77;;;1.33;;
6251;SDS011;3159;52.414;9.784;2023-05-16T10:45:52;3.73;;;1.10;;
6251;SDS011;3159;52.414;9.784;2023-05-16T10:48:28;3.87;;;1.10;;
6251;SDS011;3159;52.414;9.784;2023-05-16T10:50:56;1.77;;;0.73;;
6251;SDS011;3159;52.414;9.784;2023-05-16T10:53:28;4.67;;;0.90;;
6251;SDS011;3159;52.414;9.784;2023-05-16T10:56:06;5.47;;;0.80;;
6251;SDS011;3159;52.414;9.784;2023-05-16T10:58:41;5.50;;;0.93;;
6251;SDS011;3159;52.414;9.784;2023-05-16T11:01:15;2.47;;;0.80;;
6251;SDS011;3159;52.414;9.784;2023-05-16T11:06:48;3.90;;;0.90;;
6251;SDS011;3159;52.414;9.784;2023-05-16T11:09:20;3.47;;;0.87;;
6251;SDS011;3159;52.414;9.784;2023-05-16T11:11:54;1.50;;;0.70;;
6251;SDS011;3159;52.414;9.784;2023-05-16T11:14:27;4.50;;;0.70;;
6251;SDS011;3159;52.414;9.784;2023-05-16T11:17:01;2.13;;;0.80;;
6251;SDS011;3159;52.414;9.784;2023-05-16T11:19:33;8.03;;;1.30;;
6251;SDS011;3159;52.414;9.784;2023-05-16T11:22:10;3.30;;;1.00;;
6251;SDS011;3159;52.414;9.784;2023-05-16T11:24:47;3.47;;;1.07;;
6251;SDS011;3159;52.414;9.784;2023-05-16T11:27:19;3.80;;;0.80;;
6251;SDS011;3159;52.414;9.784;2023-05-16T11:29:47;2.83;;;0.90;;
6251;SDS011;3159;52.414;9.784;2023-05-16T11:32:17;4.03;;;1.27;;
6251;SDS011;3159;52.414;9.784;2023-05-16T11:34:45;3.53;;;0.73;;
6251;SDS011;3159;52.414;9.784;2023-05-16T11:37:14;4.30;;;0.80;;
6251;SDS011;3159;52.414;9.784;2023-05-16T11:39:41;3.70;;;1.10;;
6251;SDS011;3159;52.414;9.784;2023-05-16T11:42:08;3.87;;;1.03;;
6251;SDS011;3159;52.414;9.784;2023-05-16T11:44:34;4.73;;;0.93;;
6251;SDS011;3159;52.414;9.784;2023-05-16T11:47:01;3.93;;;0.90;;
6251;SDS011;3159;52.414;9.784;2023-05-16T11:49:28;3.33;;;1.00;;
6251;SDS011;3159;52.414;9.784;2023-05-16T11:51:55;2.97;;;0.97;;
6251;SDS011;3159;52.414;9.784;2023-05-16T11:54:24;6.33;;;1.10;;
6251;SDS011;3159;52.414;9.784;2023-05-16T11:56:51;4.20;;;1.03;;
6251;SDS011;3159;52.414;9.784;2023-05-16T11:59:18;1.83;;;1.13;;
6251;SDS011;3159;52.414;9.784;2023-05-16T12:01:46;5.17;;;0.90;;
6251;SDS011;3159;52.414;9.784;2023-05-16T12:04:14;2.73;;;1.03;;
6251;SDS011;3159;52.414;9.784;2023-05-16T12:06:44;3.13;;;1.10;;
6251;SDS011;3159;52.414;9.784;2023-05-16T12:09:23;5.20;;;1.17;;
6251;SDS011;3159;52.414;9.784;2023-05-16T12:11:50;4.47;;;1.50;;
6251;SDS011;3159;52.414;9.784;2023-05-16T12:14:17;2.33;;;1.20;;
6251;SDS011;3159;52.414;9.784;2023-05-16T12:16:45;3.23;;;1.07;;
6251;SDS011;3159;52.414;9.784;2023-05-16T12:19:13;2.90;;;0.87;;
6251;SDS011;3159;52.414;9.784;2023-05-16T12:21:40;4.80;;;1.30;;
6251;SDS011;3159;52.414;9.784;2023-05-16T12:24:08;2.10;;;0.73;;
6251;SDS011;3159;52.414;9.784;2023-05-16T12:26:38;3.97;;;1.00;;
6251;SDS011;3159;52.414;9.784;2023-05-16T12:29:07;4.17;;;1.10;;
6251;SDS011;3159;52.414;9.784;2023-05-16T12:31:35;2.93;;;0.93;;
6251;SDS011;3159;52.414;9.784;2023-05-16T12:34:03;4.80;;;1.10;;
6251;SDS011;3159;52.414;9.784;2023-05-16T12:36:31;7.57;;;1.43;;
6251;SDS011;3159;52.414;9.784;2023-05-16T12:38:59;4.57;;;0.97;;
6251;SDS011;3159;52.414;9.784;2023-05-16T12:41:27;3.97;;;1.23;;
6251;SDS011;3159;52.414;9.784;2023-05-16T12:44:06;4.37;;;1.17;;
6251;SDS011;3159;52.414;9.784;2023-05-16T12:46:39;3.90;;;1.20;;
6251;SDS011;3159;52.414;9.784;2023-05-16T12:49:06;3.70;;;1.43;;
6251;SDS011;3159;52.414;9.784;2023-05-16T12:51:33;5.50;;;1.60;;
6251;SDS011;3159;52.414;9.784;2023-05-16T12:54:06;5.57;;;1.03;;
6251;SDS011;3159;52.414;9.784;2023-05-16T12:56:34;4.07;;;1.10;;
6251;SDS011;3159;52.414;9.784;2023-05-16T12:59:00;6.00;;;1.10;;
6251;SDS011;3159;52.414;9.784;2023-05-16T13:01:29;2.97;;;1.10;;
6251;SDS011;3159;52.414;9.784;2023-05-16T13:03:56;4.30;;;1.20;;
6251;SDS011;3159;52.414;9.784;2023-05-16T13:06:23;1.00;;;0.77;;
6251;SDS011;3159;52.414;9.784;2023-05-16T13:08:50;6.00;;;0.73;;
6251;SDS011;3159;52.414;9.784;2023-05-16T13:11:17;2.90;;;1.10;;
6251;SDS011;3159;52.414;9.784;2023-05-16T13:13:44;4.47;;;1.17;;
6251;SDS011;3159;52.414;9.784;2023-05-16T13:16:11;1.97;;;0.83;;
6251;SDS011;3159;52.414;9.784;2023-05-16T13:18:39;1.50;;;0.70;;
6251;SDS011;3159;52.414;9.784;2023-05-16T13:21:06;5.10;;;0.90;;
6251;SDS011;3159;52.414;9.784;2023-05-16T13:23:33;2.43;;;0.90;;
6251;SDS011;3159;52.414;9.784;2023-05-16T13:26:00;3.53;;;1.07;;
6251;SDS011;3159;52.414;9.784;2023-05-16T13:28:27;4.07;;;0.77;;
6251;SDS011;3159;52.414;9.784;2023-05-16T13:30:54;3.50;;;0.70;;
6251;SDS011;3159;52.414;9.784;2023-05-16T13:33:21;3.27;;;0.90;;
6251;SDS011;3159;52.414;9.784;2023-05-16T13:35:50;2.77;;;0.83;;
6251;SDS011;3159;52.414;9.784;2023-05-16T13:38:17;1.80;;;0.90;;
6251;SDS011;3159;52.414;9.784;2023-05-16T13:40:44;3.83;;;0.80;;
6251;SDS011;3159;52.414;9.784;2023-05-16T13:43:11;4.10;;;0.90;;
6251;SDS011;3159;52.414;9.784;2023-05-16T13:45:39;4.00;;;1.00;;
6251;SDS011;3159;52.414;9.784;2023-05-16T13:48:06;4.47;;;1.10;;
6251;SDS011;3159;52.414;9.784;2023-05-16T13:50:33;3.87;;;0.67;;
6251;SDS011;3159;52.414;9.784;2023-05-16T13:53:01;4.73;;;1.00;;
6251;SDS011;3159;52.414;9.784;2023-05-16T13:55:28;1.07;;;0.60;;
6251;SDS011;3159;52.414;9.784;2023-05-16T13:57:55;3.50;;;0.90;;
6251;SDS011;3159;52.414;9.784;2023-05-16T14:00:22;2.87;;;0.90;;
6251;SDS011;3159;52.414;9.784;2023-05-16T14:02:49;3.80;;;0.90;;
6251;SDS011;3159;52.414;9.784;2023-05-16T14:05:16;6.93;;;0.90;;
6251;SDS011;3159;52.414;9.784;2023-05-16T14:07:42;4.60;;;0.97;;
6251;SDS011;3159;52.414;9.784;2023-05-16T14:10:11;2.43;;;0.80;;
6251;SDS011;3159;52.414;9.784;2023-05-16T14:12:37;4.63;;;0.80;;
6251;SDS011;3159;52.414;9.784;2023-05-16T14:15:05;4.43;;;0.80;;
6251;SDS011;3159;52.414;9.784;2023-05-16T14:17:33;2.50;;;0.97;;
6251;SDS011;3159;52.414;9.784;2023-05-16T14:20:00;3.40;;;0.77;;
6251;SDS011;3159;52.414;9.784;2023-05-16T14:22:27;3.60;;;0.60;;
6251;SDS011;3159;52.414;9.784;2023-05-16T14:24:56;1.57;;;0.63;;
6251;SDS011;3159;52.414;9.784;2023-05-16T14:27:24;5.20;;;0.70;;
6251;SDS011;3159;52.414;9.784;2023-05-16T14:29:51;4.43;;;0.90;;
6251;SDS011;3159;52.414;9.784;2023-05-16T14:32:18;5.07;;;0.90;;
6251;SDS011;3159;52.414;9.784;2023-05-16T14:34:44;3.97;;;0.63;;
6251;SDS011;3159;52.414;9.784;2023-05-16T14:37:11;1.80;;;0.83;;
6251;SDS011;3159;52.414;9.784;2023-05-16T14:39:40;2.03;;;0.57;;
6251;SDS011;3159;52.414;9.784;2023-05-16T14:42:08;3.13;;;0.90;;
6251;SDS011;3159;52.414;9.784;2023-05-16T14:44:37;1.90;;;0.67;;
6251;SDS011;3159;52.414;9.784;2023-05-16T14:47:05;2.97;;;0.70;;
6251;SDS011;3159;52.414;9.784;2023-05-16T14:49:31;1.47;;;0.60;;
6251;SDS011;3159;52.414;9.784;2023-05-16T14:51:58;2.33;;;1.03;;
6251;SDS011;3159;52.414;9.784;2023-05-16T14:54:25;1.63;;;0.70;;
6251;SDS011;3159;52.414;9.784;2023-05-16T14:56:52;3.83;;;0.73;;
6251;SDS011;3159;52.414;9.784;2023-05-16T14:59:19;1.77;;;0.70;;
6251;SDS011;3159;52.414;9.784;2023-05-16T15:01:47;2.93;;;0.70;;
6251;SDS011;3159;52.414;9.784;2023-05-16T15:04:14;1.57;;;0.73;;
6251;SDS011;3159;52.414;9.784;2023-05-16T15:06:41;3.30;;;0.80;;
6251;SDS011;3159;52.414;9.784;2023-05-16T15:09:08;1.93;;;0.70;;
6251;SDS011;3159;52.414;9.784;2023-05-16T15:11:35;1.87;;;0.60;;
6251;SDS011;3159;52.414;9.784;2023-05-16T15:14:01;4.90;;;0.87;;
6251;SDS011;3159;52.414;9.784;2023-05-16T15:16:28;3.83;;;0.90;;
6251;SDS011;3159;52.414;9.784;2023-05-16T15:18:57;2.10;;;0.80;;
6251;SDS011;3159;52.414;9.784;2023-05-16T15:21:23;2.03;;;0.87;;
6251;SDS011;3159;52.414;9.784;2023-05-16T15:23:51;5.40;;;0.87;;